Time;durP1;ratioP1;P1;durP2;ratioP2;P2;SDS_P1;SDS_P2;PMS_P1;PMS_P2;Temp;Humidity;BMP_temperature;BMP_pressure;BME280_temperature;BME280_humidity;BME280_pressure;Samples;Min_cycle;Max_cycle;Signal;HPM_P1;HPM_P2
2022/06/12 00:01:32;;;;;;;2.08;0.50;;;13.90;99.90;;;;;;5074127;28;20017;-72
2022/06/12 00:04:00;;;;;;;2.60;0.60;;;14.00;99.90;;;;;;5074293;28;20052;-71
2022/06/12 00:06:27;;;;;;;2.53;0.50;;;14.00;99.90;;;;;;5072677;28;20480;-71
2022/06/12 00:08:55;;;;;;;2.95;0.57;;;14.10;99.90;;;;;;5074012;28;20044;-72
2022/06/12 00:11:26;;;;;;;1.48;0.30;;;14.10;99.90;;;;;;5074275;28;20475;-72
2022/06/12 00:13:57;;;;;;;2.13;0.45;;;14.10;99.90;;;;;;5074287;28;20107;-72
2022/06/12 00:16:25;;;;;;;6.35;0.82;;;14.20;99.90;;;;;;5073875;28;20099;-72
2022/06/12 00:18:54;;;;;;;2.75;0.65;;;14.30;99.90;;;;;;5073879;28;20029;-72
2022/06/12 00:21:22;;;;;;;3.20;0.43;;;14.40;99.90;;;;;;5073854;28;20020;-72
2022/06/12 00:24:00;;;;;;;2.15;0.50;;;14.50;99.90;;;;;;5072424;28;20074;-72
2022/06/12 00:26:35;;;;;;;1.75;0.43;;;14.60;99.90;;;;;;5073625;28;20013;-72
2022/06/12 00:29:18;;;;;;;2.90;0.70;;;14.60;99.90;;;;;;5074193;28;20016;-72
2022/06/12 00:31:54;;;;;;;1.95;0.60;;;14.60;99.90;;;;;;5072270;28;20021;-72
2022/06/12 00:34:26;;;;;;;0.88;0.30;;;14.70;99.90;;;;;;5072136;28;20024;-73
2022/06/12 00:36:54;;;;;;;2.55;0.55;;;14.80;99.90;;;;;;5071929;28;20021;-72
2022/06/12 00:39:22;;;;;;;2.38;0.77;;;14.80;99.90;;;;;;5073432;28;20494;-72
2022/06/12 00:41:55;;;;;;;3.90;1.08;;;14.80;99.90;;;;;;5073765;28;20044;-72
2022/06/12 00:44:30;;;;;;;1.75;0.40;;;14.80;99.90;;;;;;5073548;28;20094;-72
2022/06/12 00:47:04;;;;;;;4.35;1.67;;;15.00;99.90;;;;;;5073110;28;20084;-72
2022/06/12 00:49:49;;;;;;;2.90;1.08;;;15.10;99.90;;;;;;5073214;28;20028;-73
2022/06/12 00:52:34;;;;;;;3.17;0.57;;;15.20;99.90;;;;;;5073014;28;20062;-72
2022/06/12 00:55:12;;;;;;;2.75;0.60;;;15.20;99.90;;;;;;5073097;28;20082;-72
2022/06/12 00:57:40;;;;;;;3.45;1.25;;;15.10;99.90;;;;;;5072979;28;20474;-72
2022/06/12 01:00:14;;;;;;;3.58;0.80;;;15.20;99.90;;;;;;5073062;28;20016;-71
2022/06/12 01:02:43;;;;;;;1.25;0.70;;;15.20;99.90;;;;;;5072946;28;20024;-73
2022/06/12 01:08:04;;;;;;;1.48;0.35;;;15.40;99.90;;;;;;5072817;28;20063;-71
2022/06/12 01:10:33;;;;;;;2.28;0.63;;;15.50;99.90;;;;;;5071474;28;20064;-71
2022/06/12 01:13:18;;;;;;;2.25;1.00;;;15.50;99.90;;;;;;5072600;28;20024;-71
2022/06/12 01:15:53;;;;;;;3.92;1.63;;;15.50;99.90;;;;;;5072903;28;20133;-73
2022/06/12 01:18:25;;;;;;;2.95;0.65;;;15.60;99.90;;;;;;5073053;28;20031;-73
2022/06/12 01:21:24;;;;;;;2.13;1.00;;;15.70;99.90;;;;;;5072976;28;20055;-72
2022/06/12 01:24:00;;;;;;;3.47;0.77;;;15.70;99.90;;;;;;5058657;28;20039;-73
2022/06/12 01:26:45;;;;;;;1.80;0.80;;;15.90;99.90;;;;;;5071508;28;20032;-73
2022/06/12 01:29:13;;;;;;;3.28;1.25;;;15.90;99.90;;;;;;5073229;28;20469;-73
2022/06/12 01:31:53;;;;;;;2.42;0.73;;;15.90;99.90;;;;;;5072776;28;20050;-72
2022/06/12 01:34:28;;;;;;;2.05;0.50;;;16.00;99.90;;;;;;5073462;28;20423;-73
2022/06/12 01:37:39;;;;;;;2.50;1.23;;;16.00;99.90;;;;;;5071390;28;20098;-73
2022/06/12 01:40:36;;;;;;;1.80;0.73;;;16.10;99.90;;;;;;5044714;28;20041;-73
2022/06/12 01:43:29;;;;;;;1.63;0.73;;;16.10;99.90;;;;;;5054954;28;20056;-73
2022/06/12 01:46:02;;;;;;;2.30;0.52;;;16.10;99.90;;;;;;5068456;28;20477;-73
2022/06/12 01:51:57;;;;;;;3.08;0.77;;;16.20;99.90;;;;;;5462413;23;20092;-71
2022/06/12 01:54:57;;;;;;;1.60;0.45;;;16.40;99.90;;;;;;5011967;28;20033;-71
2022/06/12 01:57:34;;;;;;;2.58;0.57;;;16.40;99.90;;;;;;5011560;28;20077;-72
2022/06/12 02:00:19;;;;;;;2.70;0.93;;;16.40;99.90;;;;;;5011624;28;20416;-73
2022/06/12 02:03:13;;;;;;;1.45;0.60;;;16.50;99.90;;;;;;5013117;28;20106;-72
2022/06/12 02:05:44;;;;;;;0.63;0.30;;;16.60;99.90;;;;;;5014556;28;20022;-73
2022/06/12 02:08:17;;;;;;;1.48;0.70;;;16.60;99.80;;;;;;5016711;28;20489;-72
2022/06/12 02:10:53;;;;;;;1.65;0.43;;;16.50;99.80;;;;;;5016561;28;20029;-72
2022/06/12 02:13:36;;;;;;;2.50;0.60;;;16.60;99.80;;;;;;5015241;28;20033;-72
2022/06/12 02:16:16;;;;;;;3.20;1.20;;;16.70;99.90;;;;;;5016563;28;20485;-72
2022/06/12 02:18:46;;;;;;;2.05;0.40;;;16.80;99.90;;;;;;5016587;28;20029;-72
2022/06/12 02:21:41;;;;;;;1.73;0.40;;;16.70;99.30;;;;;;5015117;28;20026;-72
2022/06/12 02:24:27;;;;;;;2.40;0.40;;;16.80;99.70;;;;;;5015115;28;20033;-72
2022/06/12 02:27:10;;;;;;;2.72;0.60;;;16.90;99.20;;;;;;5015068;28;20033;-72
2022/06/12 02:30:01;;;;;;;1.48;0.32;;;17.00;99.40;;;;;;5016497;28;20477;-73
2022/06/12 02:32:39;;;;;;;2.90;0.65;;;17.10;99.20;;;;;;5014757;28;20022;-72
2022/06/12 02:35:27;;;;;;;1.45;0.40;;;17.00;99.00;;;;;;5014637;28;20033;-72
2022/06/12 02:38:00;;;;;;;3.17;0.43;;;16.90;99.00;;;;;;5016179;28;20036;-72
2022/06/12 02:40:35;;;;;;;2.15;0.85;;;16.70;98.70;;;;;;5016117;28;20025;-71
2022/06/12 02:43:12;;;;;;;3.30;1.10;;;16.90;99.10;;;;;;5016343;28;20025;-72
2022/06/12 02:46:02;;;;;;;2.78;1.17;;;16.90;98.70;;;;;;5016039;28;20069;-72
2022/06/12 02:48:32;;;;;;;3.22;0.50;;;16.90;98.70;;;;;;5014376;28;20494;-72
2022/06/12 02:51:07;;;;;;;2.80;1.13;;;17.00;98.80;;;;;;5014177;28;20046;-73
2022/06/12 02:53:59;;;;;;;2.75;0.80;;;17.00;99.50;;;;;;5014428;28;20022;-72
2022/06/12 02:56:38;;;;;;;2.05;0.40;;;17.00;98.50;;;;;;5016102;28;20022;-72
2022/06/12 02:59:43;;;;;;;1.15;0.60;;;17.10;98.60;;;;;;5016053;28;20018;-72
2022/06/12 03:02:27;;;;;;;1.55;0.40;;;17.20;98.30;;;;;;5015691;28;20105;-72
2022/06/12 03:05:26;;;;;;;1.90;0.32;;;17.20;98.70;;;;;;5016017;28;20018;-73
2022/06/12 03:08:06;;;;;;;5.50;0.50;;;17.40;99.10;;;;;;5014751;28;20079;-72
2022/06/12 03:11:01;;;;;;;1.73;0.35;;;17.30;98.40;;;;;;5014197;28;20033;-72
2022/06/12 03:13:30;;;;;;;1.20;0.30;;;17.40;98.80;;;;;;5014950;28;20580;-72
2022/06/12 03:16:01;;;;;;;3.38;0.38;;;17.40;98.00;;;;;;5014750;28;20040;-73
2022/06/12 03:18:33;;;;;;;1.27;0.30;;;17.30;98.40;;;;;;5015300;28;20028;-72
2022/06/12 03:21:14;;;;;;;2.33;0.50;;;17.30;98.00;;;;;;5015148;28;20030;-74
2022/06/12 03:24:00;;;;;;;2.00;0.30;;;17.40;98.20;;;;;;5013822;28;20044;-73
2022/06/12 03:26:39;;;;;;;2.38;0.50;;;17.40;98.00;;;;;;5013656;28;20109;-72
2022/06/12 03:29:25;;;;;;;1.63;0.68;;;17.30;98.00;;;;;;5015101;28;20080;-72
2022/06/12 03:32:10;;;;;;;1.75;0.43;;;17.30;98.00;;;;;;5014913;28;20018;-71
2022/06/12 03:35:01;;;;;;;1.52;0.30;;;17.30;98.10;;;;;;5014932;28;20100;-72
2022/06/12 03:37:47;;;;;;;0.70;0.22;;;17.30;98.10;;;;;;5013662;28;20556;-73
2022/06/12 03:40:35;;;;;;;1.73;0.30;;;17.20;98.10;;;;;;5014878;28;20049;-72
2022/06/12 03:43:16;;;;;;;1.95;0.30;;;17.10;98.10;;;;;;5015252;28;20026;-73
2022/06/12 03:46:00;;;;;;;1.50;0.30;;;17.20;98.50;;;;;;5015166;28;20041;-73
2022/06/12 03:48:30;;;;;;;2.10;0.45;;;17.10;98.80;;;;;;5013452;28;20029;-73
2022/06/12 03:51:36;;;;;;;2.38;0.50;;;17.20;98.20;;;;;;5014437;28;20042;-73
2022/06/12 03:54:43;;;;;;;1.73;0.50;;;17.10;98.10;;;;;;5014674;28;20030;-74
2022/06/12 04:00:15;;;;;;;2.17;0.32;;;17.00;98.30;;;;;;5015169;28;20032;-73
2022/06/12 04:02:48;;;;;;;0.98;0.28;;;16.90;98.70;;;;;;5014524;28;20121;-73
2022/06/12 04:05:39;;;;;;;1.45;0.50;;;17.00;98.80;;;;;;5014609;28;20100;-73
2022/06/12 04:08:10;;;;;;;2.17;0.63;;;17.00;98.60;;;;;;5013173;28;20030;-73
2022/06/12 04:10:39;;;;;;;1.73;0.30;;;16.80;98.40;;;;;;5014428;28;20104;-73
2022/06/12 04:13:11;;;;;;;0.95;0.20;;;16.80;98.50;;;;;;5014402;28;20481;-73
2022/06/12 04:15:51;;;;;;;1.60;0.30;;;16.70;98.70;;;;;;5013099;28;20454;-73
2022/06/12 04:18:19;;;;;;;0.70;0.20;;;16.70;98.60;;;;;;5014394;28;20097;-73
2022/06/12 04:20:54;;;;;;;0.45;0.20;;;16.70;98.80;;;;;;5014215;28;20442;-73
2022/06/12 04:23:33;;;;;;;1.10;0.38;;;16.60;98.40;;;;;;5014358;28;20014;-73
2022/06/12 04:26:07;;;;;;;4.10;0.70;;;16.60;99.00;;;;;;5014327;28;20029;-73
2022/06/12 04:28:41;;;;;;;1.92;0.35;;;16.60;98.90;;;;;;5013825;28;20044;-73
2022/06/12 04:31:18;;;;;;;1.67;0.40;;;16.50;99.00;;;;;;5014348;28;20109;-73
2022/06/12 04:34:16;;;;;;;2.28;0.43;;;16.40;99.20;;;;;;5012742;28;20034;-73
2022/06/12 04:36:46;;;;;;;1.05;0.40;;;16.40;99.00;;;;;;5013773;28;20028;-73
2022/06/12 04:39:16;;;;;;;1.10;0.20;;;16.40;98.90;;;;;;5013962;28;20057;-72
2022/06/12 04:41:44;;;;;;;2.50;0.25;;;16.30;99.40;;;;;;5013808;28;20025;-73
2022/06/12 04:44:12;;;;;;;1.23;0.32;;;16.30;99.90;;;;;;5012530;28;20478;-73
2022/06/12 04:46:43;;;;;;;0.95;0.20;;;16.40;99.90;;;;;;5013763;28;20025;-73
2022/06/12 04:49:16;;;;;;;0.63;0.20;;;16.40;99.90;;;;;;5012500;28;20022;-73
2022/06/12 04:51:44;;;;;;;0.93;0.35;;;16.30;99.80;;;;;;5013454;28;20056;-73
2022/06/12 04:54:11;;;;;;;1.15;0.30;;;16.30;99.80;;;;;;5012298;28;20030;-73
2022/06/12 04:56:39;;;;;;;2.80;0.32;;;16.30;99.90;;;;;;5013648;28;20026;-73
2022/06/12 04:59:07;;;;;;;0.68;0.20;;;16.30;99.90;;;;;;5013458;28;20109;-73
2022/06/12 05:01:35;;;;;;;0.75;0.30;;;16.30;99.90;;;;;;5013553;28;20056;-73
2022/06/12 05:04:04;;;;;;;0.38;0.20;;;16.20;99.90;;;;;;5013448;28;20022;-73
2022/06/12 05:06:32;;;;;;;0.95;0.30;;;16.10;99.90;;;;;;5013499;28;20037;-73
2022/06/12 05:09:01;;;;;;;2.40;0.30;;;16.10;99.90;;;;;;5013405;28;20026;-73
2022/06/12 05:11:28;;;;;;;1.08;0.30;;;16.00;99.90;;;;;;5013457;28;20084;-73
2022/06/12 05:13:56;;;;;;;1.13;0.30;;;16.00;99.90;;;;;;5013279;28;20382;-72
2022/06/12 05:16:31;;;;;;;0.45;0.20;;;15.90;99.90;;;;;;5013448;28;20026;-73
2022/06/12 05:18:59;;;;;;;0.93;0.30;;;15.90;99.90;;;;;;5013764;28;20026;-73
2022/06/12 05:21:28;;;;;;;1.17;0.35;;;16.00;99.90;;;;;;5013220;28;20018;-73
2022/06/12 05:23:56;;;;;;;0.30;0.10;;;15.90;99.90;;;;;;5011805;28;20026;-73
2022/06/12 05:26:24;;;;;;;1.58;0.20;;;15.90;99.90;;;;;;5011864;28;20046;-73
2022/06/12 05:28:52;;;;;;;1.48;0.30;;;15.80;99.90;;;;;;5013181;28;20045;-73
2022/06/12 05:31:19;;;;;;;0.35;0.17;;;15.70;99.90;;;;;;5013361;28;20057;-73
2022/06/12 05:33:47;;;;;;;1.38;0.25;;;15.70;99.90;;;;;;5013179;28;20041;-74
2022/06/12 05:36:16;;;;;;;2.03;0.57;;;15.70;99.90;;;;;;5011881;28;20022;-73
2022/06/12 05:38:45;;;;;;;0.70;0.13;;;15.70;99.90;;;;;;5013008;28;20022;-73
2022/06/12 05:41:13;;;;;;;0.55;0.20;;;15.70;99.90;;;;;;5019550;28;20054;-73
2022/06/12 05:43:41;;;;;;;0.85;0.40;;;15.70;99.90;;;;;;5019539;28;20050;-73
2022/06/12 05:46:14;;;;;;;1.05;0.40;;;15.50;99.90;;;;;;5018172;28;20033;-73
2022/06/12 05:48:42;;;;;;;1.17;0.40;;;15.50;99.90;;;;;;5018114;28;20128;-73
2022/06/12 05:51:13;;;;;;;1.35;0.50;;;15.40;99.90;;;;;;5017950;28;20451;-73
2022/06/12 05:53:40;;;;;;;1.95;0.30;;;15.40;99.90;;;;;;5019486;28;20025;-73
2022/06/12 05:56:16;;;;;;;0.77;0.30;;;15.30;99.90;;;;;;5019340;28;20018;-74
2022/06/12 05:58:45;;;;;;;0.75;0.22;;;15.30;99.90;;;;;;5018924;28;20065;-74
2022/06/12 06:01:15;;;;;;;2.10;0.45;;;15.20;99.90;;;;;;5017968;28;20029;-74
2022/06/12 06:03:43;;;;;;;1.48;0.50;;;15.10;99.90;;;;;;5017963;28;20022;-74
2022/06/12 06:06:14;;;;;;;1.38;0.30;;;15.10;99.90;;;;;;5017898;28;20393;-74
2022/06/12 06:08:42;;;;;;;0.93;0.25;;;15.00;99.90;;;;;;5019501;28;20030;-73
2022/06/12 06:11:09;;;;;;;1.17;0.30;;;14.90;99.90;;;;;;5019455;28;20490;-73
2022/06/12 06:13:37;;;;;;;2.17;0.50;;;14.90;99.90;;;;;;5019850;28;20022;-74
2022/06/12 06:16:05;;;;;;;0.85;0.30;;;14.80;99.90;;;;;;5017784;28;20389;-73
2022/06/12 06:18:32;;;;;;;1.83;0.30;;;14.70;99.90;;;;;;5017837;28;20026;-74
2022/06/12 06:20:59;;;;;;;0.50;0.20;;;14.60;99.90;;;;;;5019125;28;20058;-73
2022/06/12 06:23:27;;;;;;;1.00;0.10;;;14.50;99.90;;;;;;5019534;28;20048;-73
2022/06/12 06:25:54;;;;;;;0.55;0.17;;;14.40;99.90;;;;;;5017698;28;20052;-73
2022/06/12 06:28:21;;;;;;;1.05;0.43;;;14.40;99.90;;;;;;5018986;28;20033;-73
2022/06/12 06:30:49;;;;;;;1.50;0.60;;;14.30;99.90;;;;;;5017563;28;20395;-73
2022/06/12 06:33:16;;;;;;;1.35;0.80;;;14.20;99.90;;;;;;5019060;28;20037;-74
2022/06/12 06:35:44;;;;;;;0.50;0.20;;;14.10;99.90;;;;;;5018897;28;20026;-73
2022/06/12 06:38:11;;;;;;;1.10;0.40;;;14.10;99.90;;;;;;5017526;28;20486;-73
2022/06/12 06:40:39;;;;;;;1.27;0.50;;;14.10;99.90;;;;;;5018904;28;20018;-73
2022/06/12 06:43:07;;;;;;;0.65;0.30;;;14.10;99.90;;;;;;5019192;28;20033;-73
2022/06/12 06:48:22;;;;;;;0.88;0.30;;;14.00;99.90;;;;;;5019619;28;20037;-73
2022/06/12 06:50:49;;;;;;;1.50;0.75;;;13.90;99.90;;;;;;5017301;28;20101;-73
2022/06/12 06:53:17;;;;;;;0.95;0.60;;;13.80;99.90;;;;;;5015900;28;20374;-73
2022/06/12 06:55:46;;;;;;;2.13;1.23;;;13.80;99.90;;;;;;5015693;28;20497;-73
2022/06/12 06:58:18;;;;;;;1.13;0.47;;;13.80;99.90;;;;;;5015605;28;20497;-73
2022/06/12 07:00:48;;;;;;;1.63;0.40;;;13.80;99.90;;;;;;5015492;28;20114;-71
2022/06/12 07:03:16;;;;;;;1.95;0.32;;;13.80;99.90;;;;;;5015235;28;20113;-72
2022/06/12 07:05:46;;;;;;;0.70;0.30;;;13.80;99.90;;;;;;5015354;28;20022;-72
2022/06/12 07:08:15;;;;;;;2.35;0.50;;;13.70;99.90;;;;;;5015413;28;20508;-71
2022/06/12 07:10:42;;;;;;;0.70;0.45;;;13.70;99.90;;;;;;5015472;28;20022;-71
2022/06/12 07:13:10;;;;;;;1.73;0.35;;;13.60;99.90;;;;;;5015505;28;20394;-72
2022/06/12 07:15:39;;;;;;;1.73;0.43;;;13.60;99.90;;;;;;5015413;28;20450;-71
2022/06/12 07:18:08;;;;;;;1.90;0.50;;;13.50;99.90;;;;;;5015462;28;20057;-72
2022/06/12 07:20:39;;;;;;;0.98;0.43;;;13.50;99.90;;;;;;5015339;28;20018;-72
2022/06/12 07:23:08;;;;;;;1.90;0.40;;;13.40;99.90;;;;;;5015523;28;20018;-70
2022/06/12 07:25:43;;;;;;;1.30;0.65;;;13.40;99.90;;;;;;5015279;28;20040;-71
2022/06/12 07:28:11;;;;;;;0.68;0.40;;;13.30;99.90;;;;;;5015670;28;20045;-72
2022/06/12 07:30:39;;;;;;;2.47;0.80;;;13.20;99.90;;;;;;5015095;28;20022;-70
2022/06/12 07:33:08;;;;;;;1.77;0.50;;;13.10;99.90;;;;;;5015124;28;20022;-72
2022/06/12 07:35:38;;;;;;;0.60;0.30;;;13.10;99.90;;;;;;5015118;28;20030;-71
2022/06/12 07:38:06;;;;;;;1.77;0.63;;;13.20;99.90;;;;;;5015110;28;20061;-72
2022/06/12 07:40:39;;;;;;;1.52;0.32;;;13.10;99.90;;;;;;5014985;28;20100;-72
2022/06/12 07:43:08;;;;;;;0.70;0.30;;;13.10;99.90;;;;;;5015043;28;20097;-71
2022/06/12 07:45:38;;;;;;;2.67;0.50;;;13.10;99.90;;;;;;5013582;28;20022;-71
2022/06/12 07:48:05;;;;;;;2.25;0.60;;;13.10;99.90;;;;;;5013537;28;20025;-69
2022/06/12 07:50:33;;;;;;;1.73;0.40;;;13.20;99.90;;;;;;5014522;28;20033;-69
2022/06/12 07:53:01;;;;;;;1.40;0.50;;;13.10;99.90;;;;;;5015069;28;20022;-69
2022/06/12 07:55:28;;;;;;;0.95;0.40;;;13.10;99.90;;;;;;5014817;28;20529;-70
2022/06/12 07:57:56;;;;;;;1.05;0.30;;;13.00;99.90;;;;;;5014665;28;20022;-70
2022/06/12 08:00:25;;;;;;;1.42;0.30;;;13.00;99.90;;;;;;5014567;28;20113;-69
2022/06/12 08:02:52;;;;;;;3.22;0.85;;;13.10;99.90;;;;;;5013529;28;20421;-69
2022/06/12 08:05:21;;;;;;;2.78;0.40;;;13.10;99.90;;;;;;5014600;28;20014;-69
2022/06/12 08:07:48;;;;;;;1.42;0.70;;;13.00;99.90;;;;;;5013244;28;20025;-68
2022/06/12 08:10:16;;;;;;;0.88;0.52;;;12.90;99.90;;;;;;5014526;28;20021;-69
2022/06/12 08:12:46;;;;;;;1.35;0.43;;;12.90;99.90;;;;;;5014384;28;20037;-69
2022/06/12 08:15:21;;;;;;;1.15;0.50;;;12.80;99.90;;;;;;5014268;28;20112;-68
2022/06/12 08:17:49;;;;;;;1.95;0.40;;;12.70;99.90;;;;;;5014305;28;20045;-70
2022/06/12 08:20:28;;;;;;;1.70;0.50;;;12.80;99.90;;;;;;5014380;28;20014;-70
2022/06/12 08:23:26;;;;;;;1.65;0.50;;;12.90;99.90;;;;;;5014267;28;20018;-70
2022/06/12 08:26:00;;;;;;;2.00;0.47;;;12.80;99.90;;;;;;5014223;28;20026;-69
2022/06/12 08:28:30;;;;;;;1.50;0.35;;;12.80;99.90;;;;;;5014237;28;20428;-71
2022/06/12 08:31:00;;;;;;;1.23;0.45;;;12.80;99.90;;;;;;5012843;28;20021;-71
2022/06/12 08:33:27;;;;;;;0.57;0.40;;;12.70;99.90;;;;;;5012735;28;20041;-70
2022/06/12 08:35:54;;;;;;;0.63;0.30;;;12.80;99.90;;;;;;5014102;28;20029;-71
2022/06/12 08:38:22;;;;;;;0.60;0.40;;;12.70;99.90;;;;;;5013951;28;20029;-71
2022/06/12 08:40:55;;;;;;;2.13;0.52;;;12.70;99.90;;;;;;5014062;28;20018;-71
2022/06/12 08:43:34;;;;;;;0.80;0.35;;;12.60;99.90;;;;;;5012587;28;20101;-71
2022/06/12 08:46:12;;;;;;;0.90;0.57;;;12.60;99.90;;;;;;5013968;28;20021;-71
2022/06/12 08:48:48;;;;;;;1.30;0.40;;;12.50;99.90;;;;;;5012538;28;20141;-71
2022/06/12 08:51:44;;;;;;;0.40;0.35;;;12.50;99.90;;;;;;5013916;28;20604;-73
2022/06/12 08:54:36;;;;;;;1.27;0.50;;;12.50;99.90;;;;;;5012618;28;20071;-71
2022/06/12 08:57:14;;;;;;;1.65;0.50;;;12.40;99.90;;;;;;5013524;28;20390;-71
2022/06/12 08:59:58;;;;;;;1.05;0.50;;;12.40;99.90;;;;;;5012269;28;20390;-71
2022/06/12 09:02:31;;;;;;;4.32;3.20;;;12.40;99.90;;;;;;5013623;28;20382;-71
2022/06/12 09:05:04;;;;;;;1.63;0.65;;;12.40;99.90;;;;;;5013881;28;20028;-70
2022/06/12 09:07:34;;;;;;;64.65;51.63;;;12.40;99.90;;;;;;5013882;28;20482;-70
2022/06/12 09:10:19;;;;;;;24.00;19.95;;;12.40;99.90;;;;;;5013866;28;20053;-71
2022/06/12 09:13:01;;;;;;;2.50;1.88;;;12.50;99.90;;;;;;5012094;28;20029;-70
2022/06/12 09:15:44;;;;;;;7.05;5.00;;;12.30;99.90;;;;;;5011529;28;20445;-71
2022/06/12 09:18:23;;;;;;;1.65;1.10;;;12.30;99.90;;;;;;5013289;28;20097;-71
2022/06/12 09:21:06;;;;;;;2.20;1.00;;;12.30;99.90;;;;;;5011659;28;20026;-70
2022/06/12 09:23:55;;;;;;;4.40;1.70;;;12.20;99.90;;;;;;5011908;28;20030;-70
2022/06/12 09:26:29;;;;;;;2.05;1.00;;;12.20;99.90;;;;;;5013324;28;20022;-71
2022/06/12 09:29:11;;;;;;;1.85;1.00;;;12.10;99.90;;;;;;5011717;28;20026;-72
2022/06/12 09:31:56;;;;;;;2.55;1.10;;;12.00;99.90;;;;;;5013647;28;20033;-71
2022/06/12 09:34:32;;;;;;;2.83;0.85;;;12.00;99.90;;;;;;5013603;28;20072;-71
2022/06/12 09:38:18;;;;;;;5.38;2.95;;;12.00;99.90;;;;;;5011581;28;20029;-71
2022/06/12 09:40:16;;;;;;;1.53;1.10;;;12.00;99.90;;;;;;5012763;28;20045;-71
2022/06/12 09:42:52;;;;;;;3.42;1.88;;;11.90;99.90;;;;;;5012979;28;20026;-71
2022/06/12 09:45:35;;;;;;;2.90;1.40;;;11.80;99.90;;;;;;5013007;28;20590;-71
2022/06/12 09:48:32;;;;;;;2.88;1.88;;;11.70;99.90;;;;;;5011673;28;20112;-71
2022/06/12 09:51:02;;;;;;;3.80;2.60;;;11.70;99.90;;;;;;5012664;28;20042;-71
2022/06/12 09:53:41;;;;;;;2.00;0.95;;;11.60;99.90;;;;;;5013330;28;20058;-68
2022/06/12 09:56:25;;;;;;;2.55;1.30;;;11.60;99.90;;;;;;5011511;28;20034;-70
2022/06/12 09:59:38;;;;;;;1.70;1.10;;;11.70;99.90;;;;;;5011487;28;20564;-70
2022/06/12 10:02:18;;;;;;;2.95;1.38;;;11.60;99.90;;;;;;4969552;28;20057;-70
2022/06/12 10:04:54;;;;;;;1.98;1.48;;;11.50;99.90;;;;;;5012881;28;20493;-72
2022/06/12 10:07:58;;;;;;;2.92;1.83;;;11.50;99.90;;;;;;5012985;28;20026;-70
2022/06/12 10:10:49;;;;;;;3.10;1.80;;;11.40;99.90;;;;;;5008823;28;20030;-71
2022/06/12 10:13:41;;;;;;;2.95;1.40;;;11.40;99.90;;;;;;5012214;28;20092;-72
2022/06/12 10:16:28;;;;;;;4.10;1.70;;;11.40;99.90;;;;;;4998831;28;20041;-71
2022/06/12 10:19:35;;;;;;;3.80;1.25;;;11.40;99.90;;;;;;5012766;28;20057;-71
2022/06/12 10:22:17;;;;;;;1.95;1.40;;;11.30;99.90;;;;;;4978564;28;20471;-71
2022/06/12 10:24:44;;;;;;;2.78;1.52;;;11.30;99.90;;;;;;5012628;28;20026;-71
2022/06/12 10:27:14;;;;;;;3.85;2.05;;;11.30;99.90;;;;;;5013477;28;20053;-71
2022/06/12 10:29:56;;;;;;;4.25;2.10;;;11.30;99.90;;;;;;5016224;28;20033;-71
2022/06/12 10:32:28;;;;;;;2.30;1.35;;;11.30;99.90;;;;;;5016567;28;20022;-70
2022/06/12 10:35:17;;;;;;;2.95;1.58;;;11.30;99.90;;;;;;5016243;28;20413;-69
2022/06/12 10:37:44;;;;;;;3.33;1.70;;;11.20;99.90;;;;;;5015970;28;20029;-69
2022/06/12 10:40:18;;;;;;;2.75;1.30;;;11.10;99.90;;;;;;5016083;28;20485;-70
2022/06/12 10:42:55;;;;;;;1.92;1.42;;;11.10;99.90;;;;;;5016021;28;20022;-70
2022/06/12 10:45:28;;;;;;;1.77;1.38;;;11.10;99.90;;;;;;5016096;28;20043;-71
2022/06/12 10:48:00;;;;;;;2.60;2.10;;;11.10;99.90;;;;;;5016142;28;20022;-69
2022/06/12 10:50:35;;;;;;;4.82;2.65;;;11.00;99.90;;;;;;5014532;28;20049;-70
2022/06/12 10:53:13;;;;;;;4.18;1.90;;;11.00;99.90;;;;;;5015898;28;20100;-69
2022/06/12 10:56:01;;;;;;;3.75;2.60;;;11.00;99.90;;;;;;5016418;28;20025;-71
2022/06/12 10:58:49;;;;;;;3.10;1.90;;;11.00;99.90;;;;;;5016012;28;20029;-69
2022/06/12 11:01:26;;;;;;;3.10;1.88;;;10.90;99.90;;;;;;5016061;28;20018;-69
2022/06/12 11:04:19;;;;;;;4.45;2.33;;;10.90;99.90;;;;;;5014300;28;20113;-70
2022/06/12 11:07:04;;;;;;;4.88;2.35;;;10.90;99.90;;;;;;5014321;28;20022;-69
2022/06/12 11:09:55;;;;;;;3.10;1.98;;;10.80;99.90;;;;;;5015745;28;20030;-70
2022/06/12 11:12:41;;;;;;;4.63;2.78;;;10.90;99.90;;;;;;5015803;28;20417;-69
2022/06/12 11:15:33;;;;;;;4.13;2.38;;;10.90;99.90;;;;;;5015768;28;20014;-70
2022/06/12 11:18:17;;;;;;;3.65;2.00;;;10.80;99.90;;;;;;5014091;28;20462;-69
2022/06/12 11:20:53;;;;;;;3.65;2.40;;;10.80;99.90;;;;;;5015492;28;20145;-69
2022/06/12 11:23:27;;;;;;;3.30;2.47;;;10.80;99.90;;;;;;5015926;28;20077;-69
2022/06/12 11:26:02;;;;;;;4.10;2.22;;;10.80;99.90;;;;;;5015368;28;20049;-69
2022/06/12 11:28:42;;;;;;;2.40;1.80;;;10.80;99.90;;;;;;5015358;28;20024;-69
2022/06/12 11:31:35;;;;;;;2.80;1.55;;;10.90;99.90;;;;;;5013893;28;20053;-69
2022/06/12 11:34:24;;;;;;;3.08;1.67;;;11.00;99.90;;;;;;5013890;28;20026;-70
2022/06/12 11:36:54;;;;;;;3.30;1.92;;;11.00;99.90;;;;;;5013474;28;20044;-70
2022/06/12 11:39:55;;;;;;;2.47;1.73;;;11.00;99.90;;;;;;5015340;28;20101;-69
2022/06/12 11:42:58;;;;;;;1.75;1.35;;;11.10;99.90;;;;;;5015072;28;20619;-69
2022/06/12 11:45:58;;;;;;;2.33;1.35;;;11.10;99.90;;;;;;5015038;28;20450;-69
2022/06/12 11:48:43;;;;;;;2.50;1.53;;;11.20;99.90;;;;;;4983998;28;20030;-69
2022/06/12 11:51:31;;;;;;;1.85;1.00;;;11.20;99.90;;;;;;5013312;28;20328;-69
2022/06/12 11:54:33;;;;;;;2.85;1.30;;;11.20;99.90;;;;;;5013502;28;20113;-69
2022/06/12 11:57:18;;;;;;;1.35;1.00;;;11.10;99.90;;;;;;5015225;28;20065;-69
2022/06/12 12:00:13;;;;;;;1.30;0.90;;;11.20;99.90;;;;;;5014669;28;20026;-68
2022/06/12 12:03:02;;;;;;;2.20;1.10;;;11.20;99.90;;;;;;5014679;28;20022;-69
2022/06/12 12:05:36;;;;;;;1.95;0.80;;;11.20;99.90;;;;;;5013496;28;20018;-69
2022/06/12 12:08:15;;;;;;;1.67;0.80;;;11.20;99.90;;;;;;5014495;28;20033;-69
2022/06/12 12:11:01;;;;;;;1.52;0.70;;;11.20;99.90;;;;;;5014508;28;20021;-69
2022/06/12 12:13:42;;;;;;;1.38;0.90;;;11.20;99.90;;;;;;5014390;28;20022;-69
2022/06/12 12:16:30;;;;;;;1.15;0.70;;;11.20;99.90;;;;;;5014439;28;20049;-69
2022/06/12 12:19:11;;;;;;;1.13;0.63;;;11.10;99.90;;;;;;5014269;28;20409;-69
2022/06/12 12:21:56;;;;;;;1.55;0.75;;;11.10;99.90;;;;;;5012979;28;20044;-69
2022/06/12 12:24:37;;;;;;;1.30;0.70;;;11.10;99.90;;;;;;5014176;28;20026;-68
2022/06/12 12:27:11;;;;;;;1.02;0.60;;;11.10;99.90;;;;;;5014196;28;20033;-69
2022/06/12 12:29:40;;;;;;;1.25;0.70;;;11.00;99.90;;;;;;5014501;28;20022;-69
2022/06/12 12:32:10;;;;;;;1.63;0.60;;;11.00;99.90;;;;;;5014096;28;20100;-69
2022/06/12 12:34:40;;;;;;;1.10;0.73;;;11.00;99.90;;;;;;5012738;28;20394;-70
2022/06/12 12:42:43;;;;;;;1.17;0.70;;;10.90;99.90;;;;;;5014217;28;20117;-69
2022/06/12 12:45:16;;;;;;;1.42;0.60;;;10.90;99.90;;;;;;5013906;28;20068;-69
2022/06/12 12:47:44;;;;;;;1.52;0.82;;;10.80;99.90;;;;;;5013922;28;20075;-69
2022/06/12 12:50:17;;;;;;;1.95;0.90;;;10.80;99.90;;;;;;5013211;28;20030;-68
2022/06/12 12:52:55;;;;;;;1.40;0.80;;;10.90;99.90;;;;;;5013485;28;20231;-69
2022/06/12 12:55:35;;;;;;;2.40;0.90;;;10.80;99.90;;;;;;5013646;28;20125;-68
2022/06/12 12:58:36;;;;;;;0.80;0.60;;;10.80;99.90;;;;;;5013804;28;20025;-72
2022/06/12 13:01:19;;;;;;;1.50;0.80;;;10.80;99.90;;;;;;4961486;28;20030;-69
2022/06/12 13:04:04;;;;;;;1.23;0.70;;;10.80;99.90;;;;;;5013577;28;20032;-69
2022/06/12 13:06:39;;;;;;;1.95;0.75;;;10.80;99.90;;;;;;5012259;28;20108;-69
2022/06/12 13:09:15;;;;;;;1.55;0.60;;;10.70;99.90;;;;;;5013754;28;20026;-70
2022/06/12 13:11:51;;;;;;;0.90;0.80;;;10.70;99.90;;;;;;5014080;28;20025;-70
2022/06/12 13:14:33;;;;;;;0.90;0.60;;;10.70;99.90;;;;;;5013448;28;20532;-69
2022/06/12 13:17:06;;;;;;;6.07;0.75;;;10.70;99.90;;;;;;5013472;28;20390;-70
2022/06/12 13:19:42;;;;;;;1.20;0.68;;;10.70;99.90;;;;;;5013536;28;20033;-70
2022/06/12 13:22:40;;;;;;;1.08;0.70;;;10.60;99.90;;;;;;5013586;28;20485;-70
2022/06/12 13:25:21;;;;;;;2.05;0.70;;;10.50;99.90;;;;;;5012229;28;20056;-70
2022/06/12 13:27:55;;;;;;;2.45;0.93;;;10.60;99.90;;;;;;5013750;28;20026;-70
2022/06/12 13:30:30;;;;;;;1.83;0.80;;;10.50;99.90;;;;;;5013521;28;20068;-70
2022/06/12 13:33:11;;;;;;;1.58;0.98;;;10.40;99.90;;;;;;5013277;28;20026;-70
2022/06/12 13:35:54;;;;;;;2.22;0.73;;;10.30;99.90;;;;;;5013199;28;20068;-70
2022/06/12 13:38:29;;;;;;;1.25;0.70;;;10.20;99.90;;;;;;5013133;28;20080;-71
2022/06/12 13:41:04;;;;;;;1.30;0.80;;;10.20;99.90;;;;;;5013307;28;20072;-71
2022/06/12 13:43:43;;;;;;;2.08;0.80;;;10.20;99.90;;;;;;5011790;28;20026;-70
2022/06/12 13:46:28;;;;;;;0.80;0.52;;;10.20;99.90;;;;;;5013026;28;20018;-70
2022/06/12 13:48:58;;;;;;;0.93;0.50;;;10.30;99.90;;;;;;5013078;28;20445;-70
2022/06/12 13:51:31;;;;;;;1.23;0.70;;;10.30;99.90;;;;;;5011399;28;20042;-70
2022/06/12 13:54:15;;;;;;;0.88;0.50;;;10.30;99.90;;;;;;5013090;28;20049;-70